sensor_id;sensor_type;location;lat;lon;timestamp;P1;durP1;ratioP1;P2;durP2;ratioP2
57947;SDS011;43754;56.992;24.292;2022-09-09T00:00:46;4.22;;;0.98;;
57947;SDS011;43754;56.992;24.292;2022-09-09T00:03:22;1.38;;;0.70;;
57947;SDS011;43754;56.992;24.292;2022-09-09T00:05:59;2.50;;;0.57;;
57947;SDS011;43754;56.992;24.292;2022-09-09T00:08:41;1.52;;;0.63;;
57947;SDS011;43754;56.992;24.292;2022-09-09T00:11:26;1.83;;;1.00;;
57947;SDS011;43754;56.992;24.292;2022-09-09T00:14:03;1.27;;;0.60;;
57947;SDS011;43754;56.992;24.292;2022-09-09T00:16:46;2.22;;;0.63;;
57947;SDS011;43754;56.992;24.292;2022-09-09T00:19:24;0.88;;;0.50;;
57947;SDS011;43754;56.992;24.292;2022-09-09T00:22:08;1.20;;;0.60;;
57947;SDS011;43754;56.992;24.292;2022-09-09T00:24:48;0.95;;;0.73;;
57947;SDS011;43754;56.992;24.292;2022-09-09T00:27:27;1.20;;;0.60;;
57947;SDS011;43754;56.992;24.292;2022-09-09T00:30:13;1.80;;;0.80;;
57947;SDS011;43754;56.992;24.292;2022-09-09T00:32:48;1.05;;;0.73;;
57947;SDS011;43754;56.992;24.292;2022-09-09T00:35:22;1.60;;;0.60;;
57947;SDS011;43754;56.992;24.292;2022-09-09T00:37:57;0.80;;;0.70;;
57947;SDS011;43754;56.992;24.292;2022-09-09T00:40:36;1.08;;;0.60;;
57947;SDS011;43754;56.992;24.292;2022-09-09T00:43:20;1.40;;;0.50;;
57947;SDS011;43754;56.992;24.292;2022-09-09T00:49:00;1.45;;;0.60;;
57947;SDS011;43754;56.992;24.292;2022-09-09T00:51:44;1.08;;;0.50;;
57947;SDS011;43754;56.992;24.292;2022-09-09T00:54:28;2.28;;;0.52;;
57947;SDS011;43754;56.992;24.292;2022-09-09T00:57:19;1.58;;;0.43;;
57947;SDS011;43754;56.992;24.292;2022-09-09T01:00:14;4.72;;;1.00;;
57947;SDS011;43754;56.992;24.292;2022-09-09T01:02:55;1.80;;;0.60;;
57947;SDS011;43754;56.992;24.292;2022-09-09T01:05:37;1.58;;;0.80;;
57947;SDS011;43754;56.992;24.292;2022-09-09T01:08:18;2.47;;;0.90;;
57947;SDS011;43754;56.992;24.292;2022-09-09T01:11:06;1.17;;;0.50;;
57947;SDS011;43754;56.992;24.292;2022-09-09T01:13:49;1.67;;;0.80;;
57947;SDS011;43754;56.992;24.292;2022-09-09T01:16:28;1.27;;;0.80;;
57947;SDS011;43754;56.992;24.292;2022-09-09T01:19:02;1.92;;;0.88;;
57947;SDS011;43754;56.992;24.292;2022-09-09T01:21:39;1.33;;;0.73;;
57947;SDS011;43754;56.992;24.292;2022-09-09T01:24:23;3.17;;;0.80;;
57947;SDS011;43754;56.992;24.292;2022-09-09T01:27:23;2.03;;;0.98;;
57947;SDS011;43754;56.992;24.292;2022-09-09T01:29:56;2.53;;;0.60;;
57947;SDS011;43754;56.992;24.292;2022-09-09T01:32:40;1.77;;;0.73;;
57947;SDS011;43754;56.992;24.292;2022-09-09T01:35:18;1.00;;;0.68;;
57947;SDS011;43754;56.992;24.292;2022-09-09T01:37:58;4.22;;;0.70;;
57947;SDS011;43754;56.992;24.292;2022-09-09T01:40:31;3.72;;;0.82;;
57947;SDS011;43754;56.992;24.292;2022-09-09T01:43:05;2.22;;;0.57;;
57947;SDS011;43754;56.992;24.292;2022-09-09T01:45:39;1.00;;;0.52;;
57947;SDS011;43754;56.992;24.292;2022-09-09T01:48:14;2.50;;;0.90;;
57947;SDS011;43754;56.992;24.292;2022-09-09T01:50:56;2.33;;;0.60;;
57947;SDS011;43754;56.992;24.292;2022-09-09T01:53:28;4.28;;;0.60;;
57947;SDS011;43754;56.992;24.292;2022-09-09T01:56:02;0.73;;;0.50;;
57947;SDS011;43754;56.992;24.292;2022-09-09T01:58:51;1.65;;;0.60;;
57947;SDS011;43754;56.992;24.292;2022-09-09T02:01:34;0.47;;;0.47;;
57947;SDS011;43754;56.992;24.292;2022-09-09T02:04:23;1.92;;;0.70;;
57947;SDS011;43754;56.992;24.292;2022-09-09T02:07:15;4.50;;;0.85;;
57947;SDS011;43754;56.992;24.292;2022-09-09T02:09:58;0.95;;;0.70;;
57947;SDS011;43754;56.992;24.292;2022-09-09T02:12:37;1.73;;;0.70;;
57947;SDS011;43754;56.992;24.292;2022-09-09T02:15:16;4.32;;;0.80;;
57947;SDS011;43754;56.992;24.292;2022-09-09T02:17:54;1.42;;;0.90;;
57947;SDS011;43754;56.992;24.292;2022-09-09T02:20:29;2.55;;;0.70;;
57947;SDS011;43754;56.992;24.292;2022-09-09T02:23:07;1.55;;;0.70;;
57947;SDS011;43754;56.992;24.292;2022-09-09T02:25:42;3.90;;;1.17;;
57947;SDS011;43754;56.992;24.292;2022-09-09T02:28:25;1.85;;;0.70;;
57947;SDS011;43754;56.992;24.292;2022-09-09T02:31:03;0.80;;;0.57;;
57947;SDS011;43754;56.992;24.292;2022-09-09T02:36:16;4.32;;;0.80;;
57947;SDS011;43754;56.992;24.292;2022-09-09T02:38:49;1.50;;;0.70;;
57947;SDS011;43754;56.992;24.292;2022-09-09T02:41:30;5.45;;;1.30;;
57947;SDS011;43754;56.992;24.292;2022-09-09T02:44:05;5.20;;;0.70;;
57947;SDS011;43754;56.992;24.292;2022-09-09T02:46:44;1.33;;;0.70;;
57947;SDS011;43754;56.992;24.292;2022-09-09T02:49:32;3.13;;;0.60;;
57947;SDS011;43754;56.992;24.292;2022-09-09T02:52:17;3.40;;;0.80;;
57947;SDS011;43754;56.992;24.292;2022-09-09T02:54:52;3.30;;;1.00;;
57947;SDS011;43754;56.992;24.292;2022-09-09T02:57:30;1.15;;;0.70;;
57947;SDS011;43754;56.992;24.292;2022-09-09T03:00:05;1.40;;;0.80;;
57947;SDS011;43754;56.992;24.292;2022-09-09T03:02:40;4.90;;;1.05;;
57947;SDS011;43754;56.992;24.292;2022-09-09T03:05:13;1.45;;;0.70;;
57947;SDS011;43754;56.992;24.292;2022-09-09T03:07:46;1.80;;;0.75;;
57947;SDS011;43754;56.992;24.292;2022-09-09T03:10:20;1.77;;;0.90;;
57947;SDS011;43754;56.992;24.292;2022-09-09T03:12:52;1.60;;;0.98;;
57947;SDS011;43754;56.992;24.292;2022-09-09T03:15:24;1.85;;;1.00;;
57947;SDS011;43754;56.992;24.292;2022-09-09T03:18:02;3.05;;;0.82;;
57947;SDS011;43754;56.992;24.292;2022-09-09T03:20:34;4.15;;;0.90;;
57947;SDS011;43754;56.992;24.292;2022-09-09T03:23:06;1.30;;;0.75;;
57947;SDS011;43754;56.992;24.292;2022-09-09T03:25:46;3.08;;;1.08;;
57947;SDS011;43754;56.992;24.292;2022-09-09T03:28:20;2.38;;;1.08;;
57947;SDS011;43754;56.992;24.292;2022-09-09T03:30:57;0.63;;;0.60;;
57947;SDS011;43754;56.992;24.292;2022-09-09T03:33:31;3.33;;;0.73;;
57947;SDS011;43754;56.992;24.292;2022-09-09T03:36:04;1.35;;;0.82;;
57947;SDS011;43754;56.992;24.292;2022-09-09T03:38:36;1.50;;;1.00;;
57947;SDS011;43754;56.992;24.292;2022-09-09T03:41:09;0.77;;;0.70;;
57947;SDS011;43754;56.992;24.292;2022-09-09T03:43:42;2.35;;;0.90;;
57947;SDS011;43754;56.992;24.292;2022-09-09T03:46:14;2.97;;;0.93;;
57947;SDS011;43754;56.992;24.292;2022-09-09T03:48:48;2.33;;;1.13;;
57947;SDS011;43754;56.992;24.292;2022-09-09T03:51:20;3.17;;;0.90;;
57947;SDS011;43754;56.992;24.292;2022-09-09T03:53:53;2.17;;;1.08;;
57947;SDS011;43754;56.992;24.292;2022-09-09T03:56:27;2.75;;;1.15;;
57947;SDS011;43754;56.992;24.292;2022-09-09T03:58:59;1.80;;;1.20;;
57947;SDS011;43754;56.992;24.292;2022-09-09T04:01:32;2.30;;;1.23;;
57947;SDS011;43754;56.992;24.292;2022-09-09T04:04:05;1.60;;;1.10;;
57947;SDS011;43754;56.992;24.292;2022-09-09T04:06:37;3.55;;;1.40;;
57947;SDS011;43754;56.992;24.292;2022-09-09T04:09:09;8.70;;;3.70;;
57947;SDS011;43754;56.992;24.292;2022-09-09T04:11:41;14.07;;;5.97;;
57947;SDS011;43754;56.992;24.292;2022-09-09T04:14:13;10.15;;;4.63;;
57947;SDS011;43754;56.992;24.292;2022-09-09T04:16:45;10.35;;;4.47;;
57947;SDS011;43754;56.992;24.292;2022-09-09T04:19:20;11.82;;;5.45;;
57947;SDS011;43754;56.992;24.292;2022-09-09T04:21:52;9.35;;;5.45;;
57947;SDS011;43754;56.992;24.292;2022-09-09T04:24:26;13.40;;;5.25;;
57947;SDS011;43754;56.992;24.292;2022-09-09T04:27:02;6.35;;;3.20;;
57947;SDS011;43754;56.992;24.292;2022-09-09T04:29:35;5.45;;;3.05;;
57947;SDS011;43754;56.992;24.292;2022-09-09T04:32:07;4.50;;;2.33;;
57947;SDS011;43754;56.992;24.292;2022-09-09T04:34:41;3.70;;;1.95;;
57947;SDS011;43754;56.992;24.292;2022-09-09T04:37:13;4.25;;;1.50;;
57947;SDS011;43754;56.992;24.292;2022-09-09T04:39:46;4.00;;;2.05;;
57947;SDS011;43754;56.992;24.292;2022-09-09T04:42:18;2.22;;;1.38;;
57947;SDS011;43754;56.992;24.292;2022-09-09T04:44:51;3.22;;;1.38;;
57947;SDS011;43754;56.992;24.292;2022-09-09T04:47:23;4.30;;;1.33;;
57947;SDS011;43754;56.992;24.292;2022-09-09T04:49:57;3.65;;;1.27;;
57947;SDS011;43754;56.992;24.292;2022-09-09T04:52:30;2.92;;;1.40;;
57947;SDS011;43754;56.992;24.292;2022-09-09T04:55:03;2.22;;;1.20;;
57947;SDS011;43754;56.992;24.292;2022-09-09T04:57:36;1.48;;;1.13;;
57947;SDS011;43754;56.992;24.292;2022-09-09T05:00:08;2.70;;;1.27;;
57947;SDS011;43754;56.992;24.292;2022-09-09T05:02:44;3.58;;;1.50;;
57947;SDS011;43754;56.992;24.292;2022-09-09T05:05:18;2.58;;;1.10;;
57947;SDS011;43754;56.992;24.292;2022-09-09T05:07:52;3.20;;;1.35;;
57947;SDS011;43754;56.992;24.292;2022-09-09T05:10:24;2.92;;;1.73;;
57947;SDS011;43754;56.992;24.292;2022-09-09T05:12:58;3.03;;;1.30;;
57947;SDS011;43754;56.992;24.292;2022-09-09T05:15:32;3.22;;;1.17;;
57947;SDS011;43754;56.992;24.292;2022-09-09T05:18:07;2.38;;;1.27;;
57947;SDS011;43754;56.992;24.292;2022-09-09T05:20:40;1.55;;;1.10;;
57947;SDS011;43754;56.992;24.292;2022-09-09T05:23:14;3.67;;;1.02;;
57947;SDS011;43754;56.992;24.292;2022-09-09T05:25:54;2.22;;;1.20;;
57947;SDS011;43754;56.992;24.292;2022-09-09T05:28:28;2.85;;;1.40;;
57947;SDS011;43754;56.992;24.292;2022-09-09T05:31:02;3.35;;;1.45;;
57947;SDS011;43754;56.992;24.292;2022-09-09T05:33:38;4.05;;;1.20;;
57947;SDS011;43754;56.992;24.292;2022-09-09T05:36:16;2.88;;;1.38;;
57947;SDS011;43754;56.992;24.292;2022-09-09T05:38:51;3.28;;;1.00;;
57947;SDS011;43754;56.992;24.292;2022-09-09T05:41:29;6.60;;;1.17;;
57947;SDS011;43754;56.992;24.292;2022-09-09T05:44:04;4.07;;;1.60;;
57947;SDS011;43754;56.992;24.292;2022-09-09T05:46:41;1.70;;;1.02;;
57947;SDS011;43754;56.992;24.292;2022-09-09T05:49:15;2.10;;;1.00;;
57947;SDS011;43754;56.992;24.292;2022-09-09T05:51:49;2.42;;;1.20;;
57947;SDS011;43754;56.992;24.292;2022-09-09T05:54:23;5.30;;;1.25;;
57947;SDS011;43754;56.992;24.292;2022-09-09T05:56:57;2.53;;;1.33;;
57947;SDS011;43754;56.992;24.292;2022-09-09T05:59:30;2.95;;;1.17;;
57947;SDS011;43754;56.992;24.292;2022-09-09T06:02:04;3.25;;;1.30;;
57947;SDS011;43754;56.992;24.292;2022-09-09T06:04:40;3.38;;;1.10;;
57947;SDS011;43754;56.992;24.292;2022-09-09T06:07:13;2.65;;;1.30;;
57947;SDS011;43754;56.992;24.292;2022-09-09T06:09:46;4.60;;;1.70;;
57947;SDS011;43754;56.992;24.292;2022-09-09T06:12:18;2.08;;;1.17;;
57947;SDS011;43754;56.992;24.292;2022-09-09T06:14:52;2.55;;;1.40;;
57947;SDS011;43754;56.992;24.292;2022-09-09T06:17:24;2.97;;;1.15;;
57947;SDS011;43754;56.992;24.292;2022-09-09T06:19:56;2.72;;;1.02;;
57947;SDS011;43754;56.992;24.292;2022-09-09T06:22:30;2.25;;;0.98;;
57947;SDS011;43754;56.992;24.292;2022-09-09T06:25:02;3.90;;;1.00;;
57947;SDS011;43754;56.992;24.292;2022-09-09T06:27:34;1.10;;;0.85;;
57947;SDS011;43754;56.992;24.292;2022-09-09T06:30:07;3.38;;;1.17;;
57947;SDS011;43754;56.992;24.292;2022-09-09T06:32:40;2.08;;;1.23;;
57947;SDS011;43754;56.992;24.292;2022-09-09T06:35:14;1.13;;;0.80;;
57947;SDS011;43754;56.992;24.292;2022-09-09T06:37:47;3.67;;;1.10;;
57947;SDS011;43754;56.992;24.292;2022-09-09T06:40:22;2.15;;;1.00;;
57947;SDS011;43754;56.992;24.292;2022-09-09T06:42:54;2.15;;;1.42;;
57947;SDS011;43754;56.992;24.292;2022-09-09T06:45:38;1.80;;;1.20;;
57947;SDS011;43754;56.992;24.292;2022-09-09T06:48:12;3.25;;;1.30;;
57947;SDS011;43754;56.992;24.292;2022-09-09T06:50:44;1.92;;;1.00;;
57947;SDS011;43754;56.992;24.292;2022-09-09T06:53:17;1.33;;;1.08;;
57947;SDS011;43754;56.992;24.292;2022-09-09T06:55:54;3.72;;;0.82;;
57947;SDS011;43754;56.992;24.292;2022-09-09T06:58:26;0.70;;;0.60;;
57947;SDS011;43754;56.992;24.292;2022-09-09T07:01:03;2.00;;;1.10;;
57947;SDS011;43754;56.992;24.292;2022-09-09T07:03:36;2.28;;;1.00;;
57947;SDS011;43754;56.992;24.292;2022-09-09T07:06:09;2.15;;;0.90;;
57947;SDS011;43754;56.992;24.292;2022-09-09T07:08:51;0.95;;;0.77;;
57947;SDS011;43754;56.992;24.292;2022-09-09T07:11:30;6.35;;;0.90;;
57947;SDS011;43754;56.992;24.292;2022-09-09T07:14:04;1.52;;;1.00;;
57947;SDS011;43754;56.992;24.292;2022-09-09T07:16:36;3.53;;;1.10;;
57947;SDS011;43754;56.992;24.292;2022-09-09T07:19:11;2.08;;;0.90;;
57947;SDS011;43754;56.992;24.292;2022-09-09T07:21:44;0.88;;;0.65;;
57947;SDS011;43754;56.992;24.292;2022-09-09T07:24:20;2.88;;;0.85;;
57947;SDS011;43754;56.992;24.292;2022-09-09T07:26:53;1.55;;;0.70;;
57947;SDS011;43754;56.992;24.292;2022-09-09T07:29:25;1.38;;;0.55;;
57947;SDS011;43754;56.992;24.292;2022-09-09T07:31:57;1.67;;;0.65;;
57947;SDS011;43754;56.992;24.292;2022-09-09T07:34:36;0.95;;;0.60;;
57947;SDS011;43754;56.992;24.292;2022-09-09T07:37:08;2.38;;;0.88;;
57947;SDS011;43754;56.992;24.292;2022-09-09T07:39:47;1.13;;;0.73;;
57947;SDS011;43754;56.992;24.292;2022-09-09T07:42:21;3.72;;;0.70;;
57947;SDS011;43754;56.992;24.292;2022-09-09T07:44:53;1.42;;;0.70;;
57947;SDS011;43754;56.992;24.292;2022-09-09T07:47:26;0.63;;;0.60;;
57947;SDS011;43754;56.992;24.292;2022-09-09T07:49:58;1.58;;;0.60;;
57947;SDS011;43754;56.992;24.292;2022-09-09T07:52:34;2.75;;;0.63;;
57947;SDS011;43754;56.992;24.292;2022-09-09T07:55:10;2.30;;;0.77;;
57947;SDS011;43754;56.992;24.292;2022-09-09T07:57:43;0.88;;;0.73;;
57947;SDS011;43754;56.992;24.292;2022-09-09T08:00:15;1.60;;;0.85;;
57947;SDS011;43754;56.992;24.292;2022-09-09T08:02:52;2.00;;;0.93;;
57947;SDS011;43754;56.992;24.292;2022-09-09T08:05:26;1.58;;;1.15;;
57947;SDS011;43754;56.992;24.292;2022-09-09T08:07:59;5.22;;;1.13;;
57947;SDS011;43754;56.992;24.292;2022-09-09T08:10:33;3.75;;;1.63;;
57947;SDS011;43754;56.992;24.292;2022-09-09T08:13:05;2.58;;;0.70;;
57947;SDS011;43754;56.992;24.292;2022-09-09T08:15:49;1.20;;;0.70;;
57947;SDS011;43754;56.992;24.292;2022-09-09T08:18:23;6.32;;;1.50;;
57947;SDS011;43754;56.992;24.292;2022-09-09T08:20:55;2.20;;;1.10;;
57947;SDS011;43754;56.992;24.292;2022-09-09T08:23:28;2.13;;;0.98;;
57947;SDS011;43754;56.992;24.292;2022-09-09T08:26:05;3.20;;;1.20;;
57947;SDS011;43754;56.992;24.292;2022-09-09T08:28:38;2.88;;;0.82;;
57947;SDS011;43754;56.992;24.292;2022-09-09T08:31:12;1.88;;;0.98;;
57947;SDS011;43754;56.992;24.292;2022-09-09T08:33:46;1.85;;;0.80;;
57947;SDS011;43754;56.992;24.292;2022-09-09T08:36:25;3.67;;;0.70;;
57947;SDS011;43754;56.992;24.292;2022-09-09T08:38:59;1.17;;;0.73;;
57947;SDS011;43754;56.992;24.292;2022-09-09T08:41:48;3.90;;;0.60;;
57947;SDS011;43754;56.992;24.292;2022-09-09T08:44:31;1.45;;;0.88;;
57947;SDS011;43754;56.992;24.292;2022-09-09T08:47:23;4.43;;;0.80;;
57947;SDS011;43754;56.992;24.292;2022-09-09T08:50:13;0.63;;;0.50;;
57947;SDS011;43754;56.992;24.292;2022-09-09T08:53:01;3.92;;;0.73;;
57947;SDS011;43754;56.992;24.292;2022-09-09T08:55:38;4.03;;;0.63;;
57947;SDS011;43754;56.992;24.292;2022-09-09T08:58:18;1.58;;;0.52;;
57947;SDS011;43754;56.992;24.292;2022-09-09T09:01:05;0.50;;;0.50;;
57947;SDS011;43754;56.992;24.292;2022-09-09T09:03:56;4.90;;;0.50;;
57947;SDS011;43754;56.992;24.292;2022-09-09T09:06:41;1.45;;;0.70;;
57947;SDS011;43754;56.992;24.292;2022-09-09T09:09:24;2.63;;;0.50;;
57947;SDS011;43754;56.992;24.292;2022-09-09T09:12:07;6.80;;;1.00;;
57947;SDS011;43754;56.992;24.292;2022-09-09T09:14:49;3.05;;;0.57;;
57947;SDS011;43754;56.992;24.292;2022-09-09T09:17:24;1.50;;;0.60;;
57947;SDS011;43754;56.992;24.292;2022-09-09T09:19:59;7.35;;;0.70;;
57947;SDS011;43754;56.992;24.292;2022-09-09T09:22:32;0.60;;;0.50;;
57947;SDS011;43754;56.992;24.292;2022-09-09T09:25:13;1.08;;;0.55;;
57947;SDS011;43754;56.992;24.292;2022-09-09T09:27:52;0.85;;;0.32;;
57947;SDS011;43754;56.992;24.292;2022-09-09T09:30:44;0.85;;;0.68;;
57947;SDS011;43754;56.992;24.292;2022-09-09T09:33:22;1.55;;;0.85;;
57947;SDS011;43754;56.992;24.292;2022-09-09T09:36:00;2.03;;;1.33;;
57947;SDS011;43754;56.992;24.292;2022-09-09T09:38:33;1.85;;;1.15;;
57947;SDS011;43754;56.992;24.292;2022-09-09T09:41:31;3.75;;;1.27;;
57947;SDS011;43754;56.992;24.292;2022-09-09T09:44:18;1.05;;;0.57;;
57947;SDS011;43754;56.992;24.292;2022-09-09T09:47:07;1.13;;;1.00;;
57947;SDS011;43754;56.992;24.292;2022-09-09T09:49:50;0.70;;;0.50;;
57947;SDS011;43754;56.992;24.292;2022-09-09T09:52:24;1.42;;;0.70;;
57947;SDS011;43754;56.992;24.292;2022-09-09T09:54:58;1.63;;;0.60;;
57947;SDS011;43754;56.992;24.292;2022-09-09T09:57:38;1.90;;;0.70;;
57947;SDS011;43754;56.992;24.292;2022-09-09T10:00:14;1.42;;;0.50;;
57947;SDS011;43754;56.992;24.292;2022-09-09T10:02:57;5.13;;;0.77;;
57947;SDS011;43754;56.992;24.292;2022-09-09T10:05:35;1.10;;;0.60;;
57947;SDS011;43754;56.992;24.292;2022-09-09T10:08:16;2.70;;;0.73;;
57947;SDS011;43754;56.992;24.292;2022-09-09T10:11:14;3.03;;;0.60;;
57947;SDS011;43754;56.992;24.292;2022-09-09T10:14:00;1.83;;;0.67;;
57947;SDS011;43754;56.992;24.292;2022-09-09T10:16:46;4.10;;;0.85;;
57947;SDS011;43754;56.992;24.292;2022-09-09T10:19:40;0.85;;;0.55;;
57947;SDS011;43754;56.992;24.292;2022-09-09T10:22:25;2.25;;;0.60;;
57947;SDS011;43754;56.992;24.292;2022-09-09T10:25:04;1.30;;;0.65;;
57947;SDS011;43754;56.992;24.292;2022-09-09T10:27:53;1.15;;;0.65;;
57947;SDS011;43754;56.992;24.292;2022-09-09T10:30:41;2.13;;;0.85;;
57947;SDS011;43754;56.992;24.292;2022-09-09T10:33:25;1.90;;;0.60;;
57947;SDS011;43754;56.992;24.292;2022-09-09T10:36:08;3.58;;;0.40;;
57947;SDS011;43754;56.992;24.292;2022-09-09T10:41:19;2.90;;;0.70;;
57947;SDS011;43754;56.992;24.292;2022-09-09T10:44:02;1.98;;;1.10;;
57947;SDS011;43754;56.992;24.292;2022-09-09T10:46:57;2.10;;;1.02;;
57947;SDS011;43754;56.992;24.292;2022-09-09T10:49:48;1.95;;;1.00;;
57947;SDS011;43754;56.992;24.292;2022-09-09T10:52:35;5.03;;;0.77;;
57947;SDS011;43754;56.992;24.292;2022-09-09T10:55:15;1.70;;;0.73;;
57947;SDS011;43754;56.992;24.292;2022-09-09T10:57:50;3.58;;;0.82;;
57947;SDS011;43754;56.992;24.292;2022-09-09T11:00:25;4.50;;;0.75;;
57947;SDS011;43754;56.992;24.292;2022-09-09T11:03:03;3.20;;;0.75;;
57947;SDS011;43754;56.992;24.292;2022-09-09T11:05:38;1.67;;;1.10;;
57947;SDS011;43754;56.992;24.292;2022-09-09T11:08:15;4.57;;;1.08;;
57947;SDS011;43754;56.992;24.292;2022-09-09T11:10:51;6.28;;;1.30;;
57947;SDS011;43754;56.992;24.292;2022-09-09T11:13:33;2.15;;;1.00;;
57947;SDS011;43754;56.992;24.292;2022-09-09T11:16:15;4.97;;;0.90;;
57947;SDS011;43754;56.992;24.292;2022-09-09T11:18:54;1.88;;;0.60;;
57947;SDS011;43754;56.992;24.292;2022-09-09T11:21:30;0.80;;;0.40;;
57947;SDS011;43754;56.992;24.292;2022-09-09T11:24:08;3.53;;;0.60;;
57947;SDS011;43754;56.992;24.292;2022-09-09T11:26:45;2.20;;;0.63;;
57947;SDS011;43754;56.992;24.292;2022-09-09T11:29:28;0.40;;;0.38;;
57947;SDS011;43754;56.992;24.292;2022-09-09T11:32:21;3.63;;;0.70;;
57947;SDS011;43754;56.992;24.292;2022-09-09T11:35:26;12.88;;;0.45;;
57947;SDS011;43754;56.992;24.292;2022-09-09T11:38:18;3.90;;;0.60;;
57947;SDS011;43754;56.992;24.292;2022-09-09T11:40:58;4.85;;;2.03;;
57947;SDS011;43754;56.992;24.292;2022-09-09T11:43:38;15.90;;;8.18;;
57947;SDS011;43754;56.992;24.292;2022-09-09T11:46:13;11.55;;;8.32;;
57947;SDS011;43754;56.992;24.292;2022-09-09T11:48:57;1.98;;;0.95;;
57947;SDS011;43754;56.992;24.292;2022-09-09T11:51:32;1.23;;;0.50;;
57947;SDS011;43754;56.992;24.292;2022-09-09T11:57:02;3.67;;;0.60;;
57947;SDS011;43754;56.992;24.292;2022-09-09T11:59:36;1.40;;;0.45;;
57947;SDS011;43754;56.992;24.292;2022-09-09T12:02:10;1.73;;;0.57;;
57947;SDS011;43754;56.992;24.292;2022-09-09T12:04:48;1.17;;;0.60;;
57947;SDS011;43754;56.992;24.292;2022-09-09T12:07:33;1.13;;;0.47;;
57947;SDS011;43754;56.992;24.292;2022-09-09T12:10:19;2.63;;;0.70;;
57947;SDS011;43754;56.992;24.292;2022-09-09T12:13:07;1.98;;;0.60;;
57947;SDS011;43754;56.992;24.292;2022-09-09T12:15:46;2.10;;;0.60;;
57947;SDS011;43754;56.992;24.292;2022-09-09T12:18:21;1.05;;;0.50;;
57947;SDS011;43754;56.992;24.292;2022-09-09T12:20:57;2.80;;;0.63;;
57947;SDS011;43754;56.992;24.292;2022-09-09T12:23:37;2.25;;;0.73;;
57947;SDS011;43754;56.992;24.292;2022-09-09T12:26:28;1.17;;;0.47;;
57947;SDS011;43754;56.992;24.292;2022-09-09T12:29:09;2.80;;;0.47;;
57947;SDS011;43754;56.992;24.292;2022-09-09T12:31:54;0.63;;;0.40;;
57947;SDS011;43754;56.992;24.292;2022-09-09T12:34:34;4.67;;;0.20;;
57947;SDS011;43754;56.992;24.292;2022-09-09T12:37:14;1.75;;;0.60;;
57947;SDS011;43754;56.992;24.292;2022-09-09T12:39:53;2.65;;;0.40;;
57947;SDS011;43754;56.992;24.292;2022-09-09T12:42:28;4.82;;;0.50;;
57947;SDS011;43754;56.992;24.292;2022-09-09T12:45:02;1.30;;;0.40;;
57947;SDS011;43754;56.992;24.292;2022-09-09T12:47:48;1.17;;;0.50;;
57947;SDS011;43754;56.992;24.292;2022-09-09T12:50:24;1.63;;;0.40;;
57947;SDS011;43754;56.992;24.292;2022-09-09T12:52:59;0.77;;;0.28;;
57947;SDS011;43754;56.992;24.292;2022-09-09T12:55:35;2.28;;;0.50;;
57947;SDS011;43754;56.992;24.292;2022-09-09T12:58:11;2.42;;;0.35;;
57947;SDS011;43754;56.992;24.292;2022-09-09T13:00:50;3.42;;;0.50;;
57947;SDS011;43754;56.992;24.292;2022-09-09T13:03:24;1.42;;;0.40;;
57947;SDS011;43754;56.992;24.292;2022-09-09T13:05:57;3.40;;;0.88;;
57947;SDS011;43754;56.992;24.292;2022-09-09T13:08:33;3.47;;;0.55;;
57947;SDS011;43754;56.992;24.292;2022-09-09T13:11:06;4.15;;;0.60;;
57947;SDS011;43754;56.992;24.292;2022-09-09T13:13:49;1.05;;;0.50;;
57947;SDS011;43754;56.992;24.292;2022-09-09T13:16:25;2.40;;;0.90;;
57947;SDS011;43754;56.992;24.292;2022-09-09T13:19:06;4.32;;;1.35;;
57947;SDS011;43754;56.992;24.292;2022-09-09T13:21:40;3.65;;;0.60;;
57947;SDS011;43754;56.992;24.292;2022-09-09T13:24:27;2.33;;;0.38;;
57947;SDS011;43754;56.992;24.292;2022-09-09T13:27:05;0.55;;;0.30;;
57947;SDS011;43754;56.992;24.292;2022-09-09T13:29:55;4.45;;;0.60;;
57947;SDS011;43754;56.992;24.292;2022-09-09T13:32:29;1.77;;;0.40;;
57947;SDS011;43754;56.992;24.292;2022-09-09T13:35:02;0.70;;;0.40;;
57947;SDS011;43754;56.992;24.292;2022-09-09T13:37:35;3.50;;;0.45;;
57947;SDS011;43754;56.992;24.292;2022-09-09T13:40:14;5.22;;;0.40;;
57947;SDS011;43754;56.992;24.292;2022-09-09T13:42:51;1.98;;;0.40;;
57947;SDS011;43754;56.992;24.292;2022-09-09T13:45:26;0.75;;;0.43;;
57947;SDS011;43754;56.992;24.292;2022-09-09T13:47:59;7.05;;;1.33;;
57947;SDS011;43754;56.992;24.292;2022-09-09T13:50:41;3.20;;;0.68;;
57947;SDS011;43754;56.992;24.292;2022-09-09T13:53:13;1.73;;;0.55;;
57947;SDS011;43754;56.992;24.292;2022-09-09T13:55:44;5.93;;;0.55;;
57947;SDS011;43754;56.992;24.292;2022-09-09T13:58:23;5.22;;;0.50;;
57947;SDS011;43754;56.992;24.292;2022-09-09T14:00:56;0.60;;;0.40;;
57947;SDS011;43754;56.992;24.292;2022-09-09T14:03:30;5.43;;;0.70;;
57947;SDS011;43754;56.992;24.292;2022-09-09T14:06:02;2.80;;;0.73;;
57947;SDS011;43754;56.992;24.292;2022-09-09T14:08:34;4.78;;;0.80;;
57947;SDS011;43754;56.992;24.292;2022-09-09T14:11:09;6.70;;;1.77;;
57947;SDS011;43754;56.992;24.292;2022-09-09T14:13:43;2.70;;;0.88;;
57947;SDS011;43754;56.992;24.292;2022-09-09T14:16:16;6.97;;;0.93;;
57947;SDS011;43754;56.992;24.292;2022-09-09T14:18:50;1.20;;;0.70;;
57947;SDS011;43754;56.992;24.292;2022-09-09T14:21:22;3.80;;;0.88;;
57947;SDS011;43754;56.992;24.292;2022-09-09T14:23:54;1.83;;;0.70;;
57947;SDS011;43754;56.992;24.292;2022-09-09T14:26:26;6.28;;;1.10;;
57947;SDS011;43754;56.992;24.292;2022-09-09T14:29:00;2.50;;;0.88;;
57947;SDS011;43754;56.992;24.292;2022-09-09T14:31:33;2.35;;;0.68;;
57947;SDS011;43754;56.992;24.292;2022-09-09T14:34:06;9.38;;;0.98;;
57947;SDS011;43754;56.992;24.292;2022-09-09T14:36:39;5.15;;;0.80;;
57947;SDS011;43754;56.992;24.292;2022-09-09T14:39:12;4.22;;;0.57;;
57947;SDS011;43754;56.992;24.292;2022-09-09T14:41:44;3.67;;;0.70;;
57947;SDS011;43754;56.992;24.292;2022-09-09T14:44:17;5.90;;;0.60;;
57947;SDS011;43754;56.992;24.292;2022-09-09T14:46:49;2.97;;;0.65;;
57947;SDS011;43754;56.992;24.292;2022-09-09T14:49:26;2.53;;;0.52;;
57947;SDS011;43754;56.992;24.292;2022-09-09T14:51:58;4.75;;;0.70;;
57947;SDS011;43754;56.992;24.292;2022-09-09T14:54:30;4.95;;;0.47;;
57947;SDS011;43754;56.992;24.292;2022-09-09T14:57:03;6.03;;;0.70;;
57947;SDS011;43754;56.992;24.292;2022-09-09T14:59:35;5.88;;;0.60;;
57947;SDS011;43754;56.992;24.292;2022-09-09T15:02:07;3.08;;;0.52;;
57947;SDS011;43754;56.992;24.292;2022-09-09T15:04:41;5.07;;;0.70;;
57947;SDS011;43754;56.992;24.292;2022-09-09T15:07:13;5.13;;;0.98;;
57947;SDS011;43754;56.992;24.292;2022-09-09T15:09:45;2.63;;;0.70;;
57947;SDS011;43754;56.992;24.292;2022-09-09T15:12:19;4.90;;;0.80;;
57947;SDS011;43754;56.992;24.292;2022-09-09T15:14:52;3.42;;;0.60;;
57947;SDS011;43754;56.992;24.292;2022-09-09T15:17:26;4.47;;;0.90;;
57947;SDS011;43754;56.992;24.292;2022-09-09T15:20:00;1.88;;;0.60;;
57947;SDS011;43754;56.992;24.292;2022-09-09T15:22:32;2.72;;;0.60;;
57947;SDS011;43754;56.992;24.292;2022-09-09T15:25:05;3.63;;;1.20;;
57947;SDS011;43754;56.992;24.292;2022-09-09T15:27:39;3.55;;;1.98;;
57947;SDS011;43754;56.992;24.292;2022-09-09T15:30:12;6.32;;;1.60;;
57947;SDS011;43754;56.992;24.292;2022-09-09T15:32:44;5.88;;;1.30;;
57947;SDS011;43754;56.992;24.292;2022-09-09T15:35:17;2.97;;;0.93;;
57947;SDS011;43754;56.992;24.292;2022-09-09T15:37:49;3.20;;;0.77;;
57947;SDS011;43754;56.992;24.292;2022-09-09T15:40:21;6.18;;;1.20;;
57947;SDS011;43754;56.992;24.292;2022-09-09T15:42:53;3.22;;;0.85;;